Overview Statistics Trail Chart Weather Telemetry Raw packets
 

This is the latest recevied weather packets stored in our database for station/object W3AJR. If no packets are shown the sender has not sent any weather packets the latest 10 day(s).

<< 6 7 8 9 10 11 12 >>
Time Temp. Humidity Pressure Rain* Wind** Luminosity Snow
1788556910 22.78° C 99% 1013.5 hPa 0 mm - 4 W/m² -
1788556627 23.33° C 98% 1013.8 hPa 1.78 mm - 4 W/m² -
1788556300 23.33° C 97% 1013.6 hPa 10.67 mm - 3 W/m² -
1788555999 23.89° C 95% 1013.3 hPa 10.67 mm - 4 W/m² -
1788555695 24.44° C 92% 1013.5 hPa 1.78 mm - 7 W/m² -
1788555391 24.44° C 93% 1013.5 hPa 0 mm - 6 W/m² -
1788555087 23.89° C 95% 1013 hPa 0 mm - 23 W/m² -
1788554783 24.44° C 95% 1012.9 hPa 0 mm - 63 W/m² -
1788554479 24.44° C 94% 1012.6 hPa 0 mm - 99 W/m² -
1788554174 24.44° C 94% 1012.2 hPa 0 mm - 127 W/m² -
1788553871 24.44° C 94% 1012.2 hPa 0 mm - 160 W/m² -
1788553567 24.44° C 96% 1012.7 hPa 0 mm - 215 W/m² -
1788553263 24.44° C 97% 1013.2 hPa 0 mm - 287 W/m² -
1788552963 24.44° C 96% 1014 hPa 0 mm - 154 W/m² -
1788552658 24.44° C 97% 1014.1 hPa 0 mm - 49 W/m² -
1788552356 24.44° C 98% 1013.8 hPa 0 mm - 159 W/m² -
1788552051 24.44° C 99% 1013.4 hPa 0 mm - 483 W/m² -
1788551750 24.44° C 99% 1012.3 hPa 0 mm - 543 W/m² -
1788551444 23.89° C 99% 1011.6 hPa 0 mm - 520 W/m² -
1788551139 22.22° C 98% 1012 hPa 0 mm - 259 W/m² -
1788550834 22.22° C 97% 1012.2 hPa 1.78 mm - 137 W/m² -
1788550528 22.22° C 96% 1012.9 hPa 14.99 mm - 108 W/m² -
1788550225 22.78° C 94% 1013 hPa 21.59 mm - 78 W/m² -
1788549924 23.89° C 92% 1013.7 hPa 24.64 mm - 41 W/m² -
1788549620 27.22° C 86% 1013.9 hPa 18.54 mm - 19 W/m² -

* Rain latest hour (hover to see other rain measurements)
** Current wind speed in m/s (hover to see current wind gust speed)